Terminal Aerodrome Forecast
Issued by NWS

Home | Current Version | Previous Version | Text Only | Print | Product List | Glossary On
Versions: 1 2 3 4 5 6 7 8 9 10 11 12 13 14 15 16 17 18 19 20 21 22 23 24 25 26 27
000
FTPA31 PHFO 250800 AAB
TAFPPG
TAF AMD
NSTU 250851Z 2509/2606 25008KT P6SM VCTS SCT018CB SCT045 BKN100
      TEMPO 2509/2510 2SM TSRA BKN006CB OVC025=

USA.gov is the U.S. government's official web portal to all federal, state and local government web resources and services.